Time;durP1;ratioP1;P1;durP2;ratioP2;P2;SDS_P1;SDS_P2;PMS_P1;PMS_P2;Temp;Humidity;BMP_temperature;BMP_pressure;BME280_temperature;BME280_humidity;BME280_pressure;Samples;Min_cycle;Max_cycle;Signal;HPM_P1;HPM_P2
2022/09/13 00:00:34;;;;;;;5.80;5.30;;;14.50;99.90;;;;;;5039042;28;20579;-88
2022/09/13 00:03:01;;;;;;;5.20;4.73;;;14.60;99.90;;;;;;5038712;28;20592;-88
2022/09/13 00:05:28;;;;;;;5.87;5.23;;;14.60;99.90;;;;;;5038717;28;21225;-88
2022/09/13 00:07:56;;;;;;;5.50;4.80;;;14.60;99.90;;;;;;5039119;28;20569;-88
2022/09/13 00:10:23;;;;;;;13.80;5.10;;;14.50;99.90;;;;;;5020813;28;21016;-88
2022/09/13 00:12:50;;;;;;;5.73;5.10;;;14.50;99.90;;;;;;5020547;28;20602;-88
2022/09/13 00:15:17;;;;;;;5.87;4.77;;;14.50;99.90;;;;;;5021239;28;20682;-88
2022/09/13 00:17:44;;;;;;;5.37;4.47;;;14.40;99.90;;;;;;5020058;28;20624;-88
2022/09/13 00:20:10;;;;;;;5.20;4.73;;;14.30;99.90;;;;;;5039318;28;20547;-88
2022/09/13 00:22:37;;;;;;;5.30;4.80;;;14.20;99.90;;;;;;5038549;28;20568;-88
2022/09/13 00:25:05;;;;;;;4.60;4.20;;;14.30;99.90;;;;;;5039253;28;20737;-88
2022/09/13 00:27:33;;;;;;;10.40;4.43;;;14.40;99.90;;;;;;5021567;28;20577;-88
2022/09/13 00:29:59;;;;;;;4.83;4.30;;;14.40;99.90;;;;;;5038873;28;20583;-88
2022/09/13 00:32:26;;;;;;;5.73;5.27;;;14.30;99.90;;;;;;5021466;28;20624;-88
2022/09/13 00:34:53;;;;;;;8.10;4.30;;;14.20;99.90;;;;;;5042481;28;21160;-88
2022/09/13 00:37:19;;;;;;;7.47;4.60;;;14.20;99.90;;;;;;5024199;28;20594;-88
2022/09/13 00:39:45;;;;;;;4.67;4.27;;;14.10;99.90;;;;;;5024968;28;20710;-88
2022/09/13 00:42:13;;;;;;;11.27;4.70;;;14.00;99.90;;;;;;5042907;28;20568;-88
2022/09/13 00:44:57;;;;;;;5.30;4.90;;;13.90;99.90;;;;;;5027591;28;20734;-89
2022/09/13 00:47:26;;;;;;;5.77;5.27;;;13.90;99.90;;;;;;5026942;28;21092;-88
2022/09/13 00:49:58;;;;;;;4.77;4.37;;;13.90;99.90;;;;;;5028342;28;21026;-88
2022/09/13 00:52:28;;;;;;;9.33;5.50;;;14.00;99.90;;;;;;5024724;28;20612;-88
2022/09/13 00:55:02;;;;;;;4.93;4.60;;;14.00;99.90;;;;;;5042352;28;20591;-87
2022/09/13 00:57:30;;;;;;;9.67;4.73;;;13.90;99.90;;;;;;5023757;28;21244;-87
2022/09/13 01:00:07;;;;;;;5.70;5.13;;;14.00;99.90;;;;;;5041923;28;20572;-88
2022/09/13 01:02:35;;;;;;;7.17;5.30;;;14.00;99.90;;;;;;5042313;28;20922;-88
2022/09/13 01:05:02;;;;;;;6.40;4.97;;;13.90;99.90;;;;;;5041563;28;20639;-88
2022/09/13 01:07:29;;;;;;;6.00;5.50;;;13.90;99.90;;;;;;5042426;28;21147;-88
2022/09/13 01:09:55;;;;;;;6.37;5.73;;;14.00;99.90;;;;;;5024760;28;20573;-87
2022/09/13 01:12:48;;;;;;;5.83;5.33;;;13.90;99.90;;;;;;5023855;28;20618;-88
2022/09/13 01:15:15;;;;;;;6.40;5.37;;;13.80;99.90;;;;;;5024121;28;20724;-88
2022/09/13 01:17:42;;;;;;;6.00;5.13;;;13.60;99.90;;;;;;5023780;28;20579;-88
2022/09/13 01:20:11;;;;;;;6.43;5.20;;;13.60;99.90;;;;;;5041890;28;20568;-87
2022/09/13 01:22:55;;;;;;;7.87;5.57;;;13.60;99.90;;;;;;5041815;28;20648;-87
2022/09/13 01:25:34;;;;;;;8.07;5.13;;;13.60;99.90;;;;;;5041304;28;20697;-87
2022/09/13 01:28:22;;;;;;;5.70;5.20;;;13.50;99.90;;;;;;5024270;28;20598;-87
2022/09/13 01:31:12;;;;;;;11.30;5.30;;;13.40;99.90;;;;;;5041428;28;21128;-87
2022/09/13 01:34:13;;;;;;;4.70;4.30;;;13.30;99.90;;;;;;5041223;28;20667;-87
2022/09/13 01:37:06;;;;;;;4.83;4.53;;;13.20;99.90;;;;;;5041546;28;20590;-87
2022/09/13 01:40:05;;;;;;;6.30;4.57;;;13.20;99.90;;;;;;5023063;28;20615;-87
2022/09/13 01:43:19;;;;;;;5.70;5.20;;;13.40;99.90;;;;;;5023000;28;20587;-87
2022/09/13 01:45:59;;;;;;;5.13;4.73;;;13.50;99.90;;;;;;4996139;28;20646;-87
2022/09/13 01:48:55;;;;;;;5.40;5.00;;;13.60;99.90;;;;;;5041135;28;20572;-87
2022/09/13 01:51:43;;;;;;;5.63;5.07;;;13.60;99.90;;;;;;5040402;28;20559;-87
2022/09/13 01:54:52;;;;;;;10.73;5.00;;;13.50;99.90;;;;;;5040640;28;20288;-87
2022/09/13 01:57:42;;;;;;;6.43;5.83;;;13.40;99.90;;;;;;5039889;28;21098;-87
2022/09/13 02:00:15;;;;;;;6.90;5.30;;;13.30;99.90;;;;;;5041386;28;20629;-87
2022/09/13 02:03:03;;;;;;;6.37;5.40;;;13.30;99.90;;;;;;5041066;28;20593;-87
2022/09/13 02:05:54;;;;;;;6.80;5.37;;;13.30;99.90;;;;;;5039265;28;20662;-88
2022/09/13 02:08:44;;;;;;;7.37;5.40;;;13.40;99.90;;;;;;5022394;28;20601;-88
2022/09/13 02:11:13;;;;;;;12.10;4.60;;;13.20;99.90;;;;;;5040581;28;20584;-87
2022/09/13 02:13:52;;;;;;;10.50;5.00;;;13.30;99.90;;;;;;5040736;28;20555;-87
2022/09/13 02:16:34;;;;;;;5.63;5.13;;;13.10;99.90;;;;;;5023287;28;20622;-88
2022/09/13 02:19:17;;;;;;;6.13;5.47;;;13.00;99.90;;;;;;5041382;28;20610;-87
2022/09/13 02:21:49;;;;;;;7.20;5.27;;;13.10;99.90;;;;;;5041363;28;20576;-88
2022/09/13 02:24:25;;;;;;;5.93;5.20;;;13.10;99.90;;;;;;5022857;28;20664;-88
2022/09/13 02:26:53;;;;;;;4.87;4.47;;;13.20;99.90;;;;;;5040103;28;20588;-88
2022/09/13 02:29:23;;;;;;;7.80;5.80;;;13.10;99.90;;;;;;5041175;28;20548;-88
2022/09/13 02:32:07;;;;;;;5.57;5.07;;;13.10;99.90;;;;;;5040004;28;20542;-87
2022/09/13 02:34:57;;;;;;;5.13;4.72;;;13.20;99.90;;;;;;5021421;28;20587;-87
2022/09/13 02:37:30;;;;;;;5.80;4.97;;;13.20;99.90;;;;;;5017374;28;20205;-88
2022/09/13 02:40:01;;;;;;;5.90;5.00;;;13.20;99.90;;;;;;5043820;28;20658;-88
2022/09/13 02:42:40;;;;;;;8.40;5.57;;;13.10;99.90;;;;;;5023336;28;20620;-88
2022/09/13 02:45:08;;;;;;;8.80;5.07;;;13.20;99.90;;;;;;5023939;28;20742;-88
2022/09/13 02:47:47;;;;;;;5.50;4.70;;;13.20;99.90;;;;;;5023160;28;20613;-88
2022/09/13 02:50:28;;;;;;;7.80;6.33;;;13.30;99.90;;;;;;5022865;28;20634;-88
2022/09/13 02:53:22;;;;;;;5.83;5.33;;;13.40;99.90;;;;;;5023168;28;20682;-89
2022/09/13 02:56:26;;;;;;;5.10;4.70;;;13.40;99.90;;;;;;5040972;28;20562;-88
2022/09/13 02:59:08;;;;;;;9.00;4.70;;;13.50;99.90;;;;;;5039880;28;20566;-88
2022/09/13 03:01:38;;;;;;;5.23;4.83;;;13.50;99.90;;;;;;5023048;28;21003;-88
2022/09/13 03:04:05;;;;;;;5.60;5.07;;;13.40;99.90;;;;;;5040789;28;20566;-87
2022/09/13 03:06:31;;;;;;;5.20;4.70;;;13.20;99.90;;;;;;5022993;28;20622;-87
2022/09/13 03:09:04;;;;;;;5.90;5.40;;;13.20;99.90;;;;;;5023505;28;20603;-86
2022/09/13 03:11:59;;;;;;;5.73;4.57;;;13.20;99.90;;;;;;5041043;28;20563;-88
2022/09/13 03:14:55;;;;;;;6.13;5.00;;;13.20;99.90;;;;;;5039920;28;20588;-88
2022/09/13 03:17:49;;;;;;;7.50;5.50;;;13.10;99.90;;;;;;5039851;28;20644;-88
2022/09/13 03:20:41;;;;;;;6.13;5.50;;;13.00;99.90;;;;;;5022464;28;20627;-88
2022/09/13 03:23:39;;;;;;;5.77;5.27;;;13.10;99.90;;;;;;5039605;28;20617;-88
2022/09/13 03:26:24;;;;;;;7.83;5.27;;;13.10;99.90;;;;;;5022247;28;20668;-88
2022/09/13 03:29:18;;;;;;;6.37;5.23;;;13.20;99.90;;;;;;5040121;28;20559;-88
2022/09/13 03:32:22;;;;;;;4.57;4.23;;;13.10;99.90;;;;;;5039731;28;20539;-89
2022/09/13 03:35:02;;;;;;;5.83;4.90;;;13.10;99.90;;;;;;5040145;28;20984;-89
2022/09/13 03:37:45;;;;;;;6.57;4.57;;;13.10;99.90;;;;;;5021863;28;20621;-89
2022/09/13 03:40:37;;;;;;;5.93;5.43;;;13.10;99.90;;;;;;5039774;28;20580;-88
2022/09/13 03:43:24;;;;;;;5.32;4.32;;;13.00;99.90;;;;;;5039842;28;20592;-89
2022/09/13 03:45:58;;;;;;;9.60;5.90;;;13.00;99.90;;;;;;5022542;28;20232;-88
2022/09/13 03:48:26;;;;;;;7.10;5.43;;;13.10;99.90;;;;;;5021842;28;20632;-88
2022/09/13 03:50:54;;;;;;;6.05;5.55;;;13.20;99.90;;;;;;5040075;28;20627;-88
2022/09/13 03:53:25;;;;;;;6.13;5.72;;;13.20;99.90;;;;;;5022355;28;20665;-88
2022/09/13 03:55:52;;;;;;;16.13;10.50;;;13.30;99.90;;;;;;5022495;28;20273;-88
2022/09/13 03:58:19;;;;;;;9.70;8.70;;;13.40;99.90;;;;;;5021910;28;20551;-88
2022/09/13 04:00:46;;;;;;;9.17;6.63;;;13.40;99.90;;;;;;5039965;28;20609;-88
2022/09/13 04:03:13;;;;;;;8.82;6.65;;;13.40;99.90;;;;;;5039907;28;20555;-87
2022/09/13 04:05:40;;;;;;;6.73;6.23;;;13.50;99.90;;;;;;5021693;28;20218;-88
2022/09/13 04:08:07;;;;;;;4.90;4.40;;;13.50;99.90;;;;;;5022343;28;20612;-88
2022/09/13 04:10:35;;;;;;;6.83;5.20;;;13.50;99.90;;;;;;5044299;28;20559;-88
2022/09/13 04:13:01;;;;;;;5.30;4.80;;;13.40;99.90;;;;;;5043824;28;20639;-88
2022/09/13 04:15:30;;;;;;;5.30;4.80;;;13.40;99.90;;;;;;5026098;28;20567;-88
2022/09/13 04:17:57;;;;;;;7.23;5.30;;;13.40;99.90;;;;;;5043449;28;20619;-88
2022/09/13 04:20:24;;;;;;;9.00;6.07;;;13.40;99.90;;;;;;5043231;28;20675;-88
2022/09/13 04:22:56;;;;;;;7.53;5.80;;;13.40;99.90;;;;;;5043336;28;20580;-88
2022/09/13 04:25:23;;;;;;;8.00;5.17;;;13.30;99.90;;;;;;5024222;28;21243;-88
2022/09/13 04:27:54;;;;;;;7.33;5.80;;;13.30;99.90;;;;;;5044297;28;20594;-88
2022/09/13 04:30:22;;;;;;;10.27;5.50;;;13.20;99.90;;;;;;5009786;28;20631;-88
2022/09/13 04:32:48;;;;;;;5.73;5.33;;;13.20;99.90;;;;;;5025892;28;21075;-88
2022/09/13 04:35:16;;;;;;;5.97;5.37;;;13.10;99.90;;;;;;5026076;28;21119;-88
2022/09/13 04:37:43;;;;;;;8.63;4.90;;;13.10;99.90;;;;;;5010061;28;20620;-88
2022/09/13 04:40:10;;;;;;;6.63;5.93;;;13.10;99.90;;;;;;5027014;28;20616;-88
2022/09/13 04:42:36;;;;;;;8.90;4.80;;;13.10;99.90;;;;;;5043596;28;20593;-88
2022/09/13 04:45:05;;;;;;;9.60;5.40;;;13.10;99.90;;;;;;5025082;28;20667;-88
2022/09/13 04:47:31;;;;;;;4.80;4.43;;;13.10;99.90;;;;;;5025121;28;20580;-88
2022/09/13 04:49:58;;;;;;;19.53;5.67;;;13.00;99.90;;;;;;5043242;28;20562;-88
2022/09/13 04:52:24;;;;;;;7.37;4.90;;;13.10;99.90;;;;;;5025719;28;20972;-88
2022/09/13 04:54:51;;;;;;;6.03;5.40;;;13.10;99.90;;;;;;5043861;28;20566;-88
2022/09/13 04:57:17;;;;;;;5.37;4.97;;;13.20;99.90;;;;;;5043843;28;20619;-88
2022/09/13 04:59:44;;;;;;;5.47;4.97;;;13.20;99.90;;;;;;5024501;28;21015;-88
2022/09/13 05:02:10;;;;;;;8.50;5.70;;;13.20;99.90;;;;;;5042425;28;20565;-88
2022/09/13 05:04:37;;;;;;;12.27;5.40;;;13.10;99.90;;;;;;5043380;28;20660;-86
2022/09/13 05:07:03;;;;;;;5.13;4.53;;;13.10;99.90;;;;;;5007527;28;20632;-88
2022/09/13 05:09:33;;;;;;;9.47;4.80;;;12.90;99.90;;;;;;5023391;28;20547;-88
2022/09/13 05:11:59;;;;;;;4.90;4.50;;;13.00;99.90;;;;;;5042472;28;20566;-88
2022/09/13 05:14:25;;;;;;;5.60;5.20;;;12.90;99.90;;;;;;5042145;28;20520;-87
2022/09/13 05:16:51;;;;;;;6.47;5.57;;;12.80;99.90;;;;;;5010356;28;21094;-89
2022/09/13 05:19:21;;;;;;;8.83;6.03;;;12.70;99.90;;;;;;5007838;28;20627;-89
2022/09/13 05:21:47;;;;;;;7.63;6.63;;;12.80;99.90;;;;;;5007718;28;21201;-89
2022/09/13 05:24:13;;;;;;;7.13;6.45;;;12.90;99.90;;;;;;5023541;28;20681;-90
2022/09/13 05:26:40;;;;;;;12.40;6.10;;;12.90;99.90;;;;;;5023471;28;20197;-90
2022/09/13 05:29:06;;;;;;;5.93;5.43;;;13.00;99.90;;;;;;5024648;28;20694;-83
2022/09/13 05:31:35;;;;;;;15.73;6.63;;;13.10;99.90;;;;;;5025823;28;20254;-90
2022/09/13 05:34:09;;;;;;;6.63;5.10;;;13.20;99.90;;;;;;5024428;28;20630;-92
2022/09/13 05:36:37;;;;;;;7.90;5.63;;;13.20;99.90;;;;;;5042072;28;20205;-90
2022/09/13 05:39:07;;;;;;;7.60;5.77;;;13.30;99.90;;;;;;5007466;28;20643;-90
2022/09/13 05:41:37;;;;;;;7.50;5.90;;;13.30;99.90;;;;;;5041430;28;20598;-91
2022/09/13 05:44:04;;;;;;;10.00;5.60;;;13.30;99.90;;;;;;5024074;28;20701;-90
2022/09/13 05:46:30;;;;;;;6.70;5.67;;;13.40;99.90;;;;;;5008554;28;20713;-91
2022/09/13 05:48:59;;;;;;;7.57;6.87;;;13.50;99.90;;;;;;5023134;28;20583;-91
2022/09/13 05:51:31;;;;;;;9.30;7.67;;;13.50;99.90;;;;;;5007767;28;20654;-90
2022/09/13 05:54:05;;;;;;;11.27;6.80;;;13.40;99.90;;;;;;5042133;28;20738;-91
2022/09/13 05:56:35;;;;;;;8.87;6.40;;;13.40;99.90;;;;;;5006980;28;20610;-92
2022/09/13 05:59:02;;;;;;;6.50;5.90;;;13.50;99.90;;;;;;5007235;28;20676;-89
2022/09/13 06:01:29;;;;;;;6.00;5.60;;;13.60;99.90;;;;;;5023868;28;21095;-90
2022/09/13 06:03:57;;;;;;;7.13;6.20;;;13.70;99.90;;;;;;5039341;28;20685;-90
2022/09/13 06:06:24;;;;;;;7.00;6.00;;;13.50;99.90;;;;;;5039461;28;20630;-89
2022/09/13 06:08:56;;;;;;;6.03;5.43;;;13.40;99.90;;;;;;5006572;28;20674;-90
2022/09/13 06:11:25;;;;;;;12.20;6.50;;;13.50;99.90;;;;;;5006673;28;20689;-91
2022/09/13 06:13:53;;;;;;;7.00;6.30;;;13.50;99.90;;;;;;4990280;28;20606;-88
2022/09/13 06:16:21;;;;;;;18.23;12.50;;;13.70;99.90;;;;;;5039547;28;21114;-92
2022/09/13 06:18:48;;;;;;;8.20;6.40;;;14.00;99.90;;;;;;5007316;28;20642;-90
2022/09/13 06:21:23;;;;;;;10.97;9.93;;;14.10;99.90;;;;;;5040572;28;20615;-89
2022/09/13 06:23:53;;;;;;;9.87;6.30;;;14.20;99.90;;;;;;5040866;28;20706;-88
2022/09/13 06:26:22;;;;;;;9.17;5.87;;;14.40;99.90;;;;;;5041117;28;20650;-89
2022/09/13 06:28:57;;;;;;;7.47;6.20;;;14.50;99.90;;;;;;5024332;28;20684;-89
2022/09/13 06:31:26;;;;;;;6.63;5.10;;;14.60;99.90;;;;;;5007793;28;20714;-88
2022/09/13 06:34:01;;;;;;;6.47;5.97;;;14.60;99.90;;;;;;5021692;28;20713;-88
2022/09/13 06:36:30;;;;;;;6.80;6.10;;;14.60;99.90;;;;;;5021393;28;20673;-88
2022/09/13 06:38:59;;;;;;;10.50;6.80;;;14.70;99.90;;;;;;5006492;28;21209;-88
2022/09/13 06:41:27;;;;;;;10.50;5.47;;;14.50;99.90;;;;;;5021541;28;21270;-89
2022/09/13 06:43:59;;;;;;;11.73;5.27;;;14.80;99.90;;;;;;5021151;28;20592;-88
2022/09/13 06:46:28;;;;;;;6.27;5.67;;;15.10;99.90;;;;;;5038543;28;20706;-87
2022/09/13 06:48:57;;;;;;;8.10;6.20;;;15.20;99.90;;;;;;5005054;28;20605;-87
2022/09/13 06:51:24;;;;;;;7.03;5.70;;;15.40;99.90;;;;;;5021800;28;20666;-87
2022/09/13 06:53:52;;;;;;;8.87;6.67;;;15.40;99.90;;;;;;5021929;28;20589;-87
2022/09/13 06:56:45;;;;;;;7.33;6.73;;;15.40;99.90;;;;;;5042808;28;20547;-87
2022/09/13 06:59:11;;;;;;;9.10;6.10;;;15.50;99.90;;;;;;5036858;28;20613;-89
2022/09/13 07:01:40;;;;;;;11.77;6.23;;;15.70;99.90;;;;;;5022461;28;20612;-87
2022/09/13 07:04:09;;;;;;;7.23;6.60;;;15.80;99.90;;;;;;5021506;28;20598;-88
2022/09/13 07:06:41;;;;;;;7.10;6.33;;;15.90;99.90;;;;;;5039163;28;20635;-87
2022/09/13 07:09:11;;;;;;;10.57;8.77;;;16.00;99.90;;;;;;5040754;28;21132;-88
2022/09/13 07:11:39;;;;;;;8.37;7.63;;;15.90;99.90;;;;;;5041193;28;20738;-88
2022/09/13 07:14:07;;;;;;;12.13;8.40;;;15.90;99.90;;;;;;5039751;28;20651;-87
2022/09/13 07:16:36;;;;;;;11.33;7.20;;;15.90;99.90;;;;;;5040539;28;21174;-87
2022/09/13 07:19:05;;;;;;;8.40;7.70;;;16.00;99.90;;;;;;5023306;28;20589;-87
2022/09/13 07:21:32;;;;;;;11.17;8.17;;;16.00;99.90;;;;;;5040965;28;20679;-87
2022/09/13 07:23:59;;;;;;;7.90;7.17;;;16.00;99.90;;;;;;5023661;28;20559;-87
2022/09/13 07:26:26;;;;;;;10.10;7.77;;;16.20;99.90;;;;;;5042916;28;20623;-87
2022/09/13 07:28:56;;;;;;;9.23;8.33;;;16.10;99.90;;;;;;5023142;28;20609;-87
2022/09/13 07:31:35;;;;;;;13.43;7.63;;;16.00;99.90;;;;;;5039501;28;20564;-88
2022/09/13 07:34:04;;;;;;;8.80;8.00;;;16.10;99.90;;;;;;5040584;28;20647;-87
2022/09/13 07:36:34;;;;;;;8.67;7.83;;;16.20;99.90;;;;;;5019569;28;20620;-88
2022/09/13 07:39:02;;;;;;;12.10;8.20;;;16.20;99.90;;;;;;5038272;28;20571;-87
2022/09/13 07:41:30;;;;;;;8.10;7.40;;;16.30;99.90;;;;;;5037716;28;20584;-87
2022/09/13 07:43:59;;;;;;;9.50;7.40;;;16.60;99.90;;;;;;5020635;28;20606;-87
2022/09/13 07:46:27;;;;;;;8.17;7.40;;;16.90;99.90;;;;;;5037203;28;20982;-87
2022/09/13 07:48:56;;;;;;;9.60;8.47;;;17.00;99.90;;;;;;5021085;28;20572;-87
2022/09/13 07:51:26;;;;;;;9.50;8.43;;;17.10;99.90;;;;;;5038565;28;20615;-87
2022/09/13 07:53:55;;;;;;;7.60;6.57;;;17.30;99.90;;;;;;5038185;28;20665;-88
2022/09/13 07:56:36;;;;;;;8.07;7.17;;;17.20;99.90;;;;;;5037859;28;20591;-87
2022/09/13 07:59:06;;;;;;;8.30;7.50;;;17.30;99.90;;;;;;5037595;28;20587;-87
2022/09/13 08:01:42;;;;;;;9.40;7.80;;;17.40;99.90;;;;;;5020697;28;20612;-87
2022/09/13 08:04:11;;;;;;;8.30;7.60;;;17.50;99.90;;;;;;5020273;28;20619;-88
2022/09/13 08:06:39;;;;;;;8.07;7.27;;;17.60;99.90;;;;;;5038226;28;20668;-87
2022/09/13 08:09:07;;;;;;;7.67;6.83;;;17.70;99.90;;;;;;5038894;28;20577;-87
2022/09/13 08:11:45;;;;;;;8.57;7.43;;;17.70;99.90;;;;;;5040252;28;20544;-87
2022/09/13 08:14:14;;;;;;;8.60;6.70;;;18.00;99.90;;;;;;5039364;28;20580;-86
2022/09/13 08:16:41;;;;;;;7.53;6.83;;;18.30;99.90;;;;;;5041352;28;20968;-87
2022/09/13 08:19:11;;;;;;;7.53;6.87;;;18.30;99.90;;;;;;5041573;28;20583;-87
2022/09/13 08:21:39;;;;;;;6.47;5.90;;;18.40;99.90;;;;;;5040247;28;20972;-88
2022/09/13 08:24:07;;;;;;;7.43;6.73;;;18.60;99.90;;;;;;5041510;28;20612;-88
2022/09/13 08:26:35;;;;;;;7.03;5.90;;;18.70;99.90;;;;;;5043191;28;21174;-86
2022/09/13 08:29:04;;;;;;;9.10;6.80;;;18.80;99.90;;;;;;5026885;28;20622;-87
2022/09/13 08:31:31;;;;;;;5.93;5.43;;;19.00;99.90;;;;;;5044777;28;20623;-87
2022/09/13 08:33:58;;;;;;;6.47;5.87;;;19.10;99.90;;;;;;5043623;28;21204;-87
2022/09/13 08:36:26;;;;;;;6.73;6.13;;;19.30;99.90;;;;;;5044391;28;20684;-87
2022/09/13 08:38:56;;;;;;;11.40;6.50;;;19.60;99.90;;;;;;5043603;28;20649;-87
2022/09/13 08:41:43;;;;;;;7.50;6.60;;;19.60;99.90;;;;;;5025984;28;20635;-86
2022/09/13 08:44:50;;;;;;;9.00;8.20;;;19.80;99.90;;;;;;5045357;28;20580;-86
2022/09/13 08:47:39;;;;;;;7.80;7.10;;;20.00;99.90;;;;;;4962517;29;20687;-86
2022/09/13 08:50:12;;;;;;;6.97;6.33;;;19.60;99.90;;;;;;4964781;29;20613;-86
2022/09/13 08:52:56;;;;;;;9.07;6.90;;;19.60;99.90;;;;;;5018075;28;20616;-87
2022/09/13 08:55:47;;;;;;;7.83;6.60;;;19.50;99.90;;;;;;5027909;28;20608;-87
2022/09/13 08:58:35;;;;;;;7.03;6.03;;;19.40;99.90;;;;;;5002459;28;20624;-87
2022/09/13 09:01:19;;;;;;;6.60;6.00;;;19.80;99.90;;;;;;5025298;28;20612;-87
2022/09/13 09:03:57;;;;;;;9.57;6.77;;;19.90;99.90;;;;;;5045503;28;21106;-87
2022/09/13 09:06:24;;;;;;;5.93;5.43;;;19.90;99.90;;;;;;5047942;28;21271;-87
2022/09/13 09:09:04;;;;;;;7.27;6.57;;;19.90;99.90;;;;;;5031141;28;20576;-86
2022/09/13 09:11:40;;;;;;;12.40;5.40;;;20.20;99.90;;;;;;5029916;28;21166;-87
2022/09/13 09:14:26;;;;;;;9.10;4.80;;;20.30;99.90;;;;;;5048400;28;20607;-86
2022/09/13 09:17:00;;;;;;;6.07;5.00;;;20.30;99.90;;;;;;5047157;28;20584;-87
2022/09/13 09:19:34;;;;;;;4.73;3.80;;;20.50;99.90;;;;;;5027735;28;20630;-86
2022/09/13 09:22:10;;;;;;;4.40;4.00;;;20.60;99.90;;;;;;5044100;28;20703;-87
2022/09/13 09:24:38;;;;;;;8.30;5.07;;;20.70;99.90;;;;;;5028183;28;20695;-87
2022/09/13 09:27:14;;;;;;;5.00;4.53;;;21.10;99.90;;;;;;5028260;28;20651;-86
2022/09/13 09:29:43;;;;;;;4.40;3.97;;;21.00;99.90;;;;;;5029530;28;20964;-87
2022/09/13 09:32:46;;;;;;;11.10;3.97;;;21.30;99.90;;;;;;5046891;28;20576;-87
2022/09/13 09:35:32;;;;;;;4.63;4.10;;;21.50;99.90;;;;;;5027558;28;20618;-86
2022/09/13 09:38:24;;;;;;;4.47;4.10;;;21.70;99.90;;;;;;5048288;28;20659;-87
2022/09/13 09:40:51;;;;;;;4.80;3.97;;;22.40;99.90;;;;;;5028683;28;20608;-86
2022/09/13 09:43:29;;;;;;;4.20;3.80;;;22.70;99.90;;;;;;5046524;28;20551;-86
2022/09/13 09:45:57;;;;;;;5.43;4.67;;;22.60;99.90;;;;;;5046602;28;20635;-87
2022/09/13 09:48:29;;;;;;;3.93;3.60;;;22.50;99.90;;;;;;5028420;28;20607;-85
2022/09/13 09:50:58;;;;;;;4.03;3.73;;;22.00;99.90;;;;;;5045531;28;20576;-87
2022/09/13 09:53:35;;;;;;;4.50;3.93;;;22.50;99.90;;;;;;5024787;28;20624;-87
2022/09/13 09:56:29;;;;;;;5.27;4.00;;;22.70;99.90;;;;;;5044433;28;20583;-84
2022/09/13 09:58:55;;;;;;;7.80;4.60;;;22.30;99.90;;;;;;5044550;28;20564;-87
2022/09/13 10:01:31;;;;;;;6.10;4.23;;;22.50;99.90;;;;;;5025715;28;20588;-87
2022/09/13 10:04:04;;;;;;;4.30;4.00;;;22.60;99.90;;;;;;5041419;28;20626;-87
2022/09/13 10:06:31;;;;;;;6.57;4.63;;;22.40;99.90;;;;;;5042118;28;20676;-87
2022/09/13 10:09:05;;;;;;;5.70;4.37;;;22.20;99.90;;;;;;5024386;28;20603;-86
2022/09/13 10:11:47;;;;;;;4.40;4.00;;;22.30;99.90;;;;;;5039030;28;21190;-87
2022/09/13 10:14:35;;;;;;;4.53;4.30;;;22.00;99.90;;;;;;5039465;28;21154;-87
2022/09/13 10:17:17;;;;;;;8.87;4.17;;;22.30;99.90;;;;;;5042523;28;20588;-87
2022/09/13 10:20:00;;;;;;;5.80;4.07;;;22.70;99.90;;;;;;5022590;28;20608;-87
2022/09/13 10:22:28;;;;;;;4.20;3.90;;;22.50;99.90;;;;;;5040132;28;20584;-86
2022/09/13 10:24:55;;;;;;;4.30;4.00;;;22.70;99.90;;;;;;5005990;28;20609;-87
2022/09/13 10:27:27;;;;;;;5.07;3.87;;;22.50;99.90;;;;;;5023438;28;20647;-87
2022/09/13 10:29:58;;;;;;;4.40;3.90;;;22.50;99.90;;;;;;5040120;28;20552;-87
2022/09/13 10:32:27;;;;;;;5.10;4.20;;;22.40;99.90;;;;;;5040012;28;21099;-87
2022/09/13 10:34:55;;;;;;;4.50;4.10;;;22.60;99.90;;;;;;5023396;28;20714;-86
2022/09/13 10:37:30;;;;;;;6.37;3.80;;;22.90;99.90;;;;;;5022596;28;20628;-87
2022/09/13 10:40:33;;;;;;;3.90;3.70;;;23.30;99.90;;;;;;5039210;28;20612;-87
2022/09/13 10:43:03;;;;;;;6.77;3.30;;;23.40;99.90;;;;;;4959985;29;20647;-87
2022/09/13 10:45:31;;;;;;;4.20;3.80;;;24.00;99.90;;;;;;5026215;28;20604;-87
2022/09/13 10:48:04;;;;;;;4.53;4.23;;;24.60;99.90;;;;;;5024725;28;20675;-87
2022/09/13 10:50:31;;;;;;;4.53;4.23;;;25.20;99.90;;;;;;5039846;28;20586;-87
2022/09/13 10:52:59;;;;;;;3.67;3.43;;;24.90;99.90;;;;;;5021136;28;20620;-87
2022/09/13 10:55:35;;;;;;;4.23;3.83;;;25.30;99.90;;;;;;5020876;28;20632;-86
2022/09/13 10:58:02;;;;;;;10.30;4.07;;;25.30;99.90;;;;;;5019432;28;20702;-87
2022/09/13 11:00:59;;;;;;;4.00;3.70;;;24.90;99.90;;;;;;5039711;28;20591;-87
2022/09/13 11:03:58;;;;;;;4.43;4.17;;;24.30;99.90;;;;;;4989409;28;20674;-87
2022/09/13 11:06:39;;;;;;;4.30;3.90;;;24.60;99.90;;;;;;5024829;28;20671;-87
2022/09/13 11:09:12;;;;;;;11.03;5.17;;;24.80;99.90;;;;;;5042206;28;20652;-87
2022/09/13 11:11:59;;;;;;;4.40;4.00;;;24.90;99.90;;;;;;5042634;28;20583;-87
2022/09/13 11:14:47;;;;;;;4.33;4.00;;;24.80;99.90;;;;;;5042877;28;20607;-87
2022/09/13 11:17:47;;;;;;;6.73;4.07;;;24.80;99.90;;;;;;5042270;28;20564;-86
2022/09/13 11:20:38;;;;;;;6.30;4.07;;;25.00;99.90;;;;;;5043887;28;20585;-87
2022/09/13 11:23:20;;;;;;;6.40;4.77;;;25.20;99.90;;;;;;5026470;28;20695;-87
2022/09/13 11:26:17;;;;;;;4.93;4.50;;;25.30;99.90;;;;;;5043721;28;20616;-84
2022/09/13 11:29:03;;;;;;;5.07;4.67;;;26.30;99.90;;;;;;5026587;28;20687;-84
2022/09/13 11:31:54;;;;;;;4.63;4.27;;;26.40;99.90;;;;;;5043583;28;20572;-86
2022/09/13 11:34:40;;;;;;;5.63;4.10;;;26.60;99.90;;;;;;5023225;28;21242;-86
2022/09/13 11:37:10;;;;;;;7.77;4.33;;;27.20;99.90;;;;;;5041886;28;20626;-86
2022/09/13 11:39:37;;;;;;;5.40;4.30;;;26.80;99.90;;;;;;5024364;28;20608;-84
2022/09/13 11:42:21;;;;;;;4.93;4.63;;;26.70;99.90;;;;;;5043573;28;20643;-85
2022/09/13 11:45:02;;;;;;;6.37;4.20;;;26.90;99.90;;;;;;5042343;28;20628;-86
2022/09/13 11:47:53;;;;;;;4.90;4.60;;;27.40;99.90;;;;;;5025136;28;20736;-85
2022/09/13 11:50:58;;;;;;;4.70;4.40;;;27.40;99.90;;;;;;5025201;28;20616;-85
2022/09/13 11:54:20;;;;;;;4.47;4.17;;;27.20;99.90;;;;;;5025457;28;20604;-86
2022/09/13 11:56:53;;;;;;;4.77;4.40;;;27.60;99.90;;;;;;4994459;28;20703;-86
2022/09/13 11:59:43;;;;;;;4.70;4.40;;;27.90;99.90;;;;;;5042153;28;20615;-86
2022/09/13 12:02:33;;;;;;;7.70;4.87;;;28.20;99.90;;;;;;5025467;28;21218;-85
2022/09/13 12:05:21;;;;;;;4.87;4.67;;;28.60;99.90;;;;;;5044754;28;20599;-87
2022/09/13 12:07:53;;;;;;;4.83;4.50;;;29.10;99.90;;;;;;5044490;28;20727;-87
2022/09/13 12:10:49;;;;;;;5.23;4.77;;;29.00;99.90;;;;;;5043009;28;20686;-87
2022/09/13 12:13:40;;;;;;;4.93;4.50;;;29.90;99.90;;;;;;5041535;28;20599;-87
2022/09/13 12:16:15;;;;;;;5.10;4.70;;;30.10;99.90;;;;;;5039693;28;20608;-87
2022/09/13 12:18:48;;;;;;;5.10;4.80;;;29.60;99.90;;;;;;5022523;28;20607;-87
2022/09/13 12:21:22;;;;;;;5.00;4.10;;;29.00;99.90;;;;;;5040041;28;20545;-87
2022/09/13 12:24:16;;;;;;;4.60;4.20;;;28.60;99.90;;;;;;5022323;28;20604;-87
2022/09/13 12:27:04;;;;;;;8.93;4.43;;;29.10;99.90;;;;;;5022934;28;20726;-87
2022/09/13 12:29:50;;;;;;;4.80;4.50;;;29.80;99.90;;;;;;5024084;28;20789;-87
2022/09/13 12:32:18;;;;;;;3.93;3.73;;;29.30;99.90;;;;;;5046215;28;20591;-85
2022/09/13 12:34:54;;;;;;;4.43;4.23;;;28.80;99.90;;;;;;5028526;28;20801;-85
2022/09/13 12:37:50;;;;;;;4.87;4.50;;;28.70;99.90;;;;;;5045796;28;20575;-85
2022/09/13 12:40:26;;;;;;;4.63;4.43;;;29.80;99.90;;;;;;5044832;28;20623;-86
2022/09/13 12:43:11;;;;;;;4.50;4.30;;;30.60;99.90;;;;;;5027050;28;20616;-86
2022/09/13 12:46:18;;;;;;;4.43;4.03;;;31.10;99.90;;;;;;5027561;28;20994;-86
2022/09/13 12:49:03;;;;;;;4.60;4.20;;;30.20;99.90;;;;;;5044601;28;21162;-86
2022/09/13 12:52:03;;;;;;;4.20;3.93;;;30.80;99.90;;;;;;5027052;28;20757;-87
2022/09/13 12:54:56;;;;;;;5.10;3.87;;;30.70;99.90;;;;;;5025517;28;20620;-88
2022/09/13 12:57:29;;;;;;;3.30;3.10;;;29.40;99.90;;;;;;5043518;28;20572;-87
2022/09/13 13:00:22;;;;;;;3.93;3.63;;;29.00;99.90;;;;;;5027082;28;20627;-87
2022/09/13 13:02:48;;;;;;;4.70;4.40;;;29.40;99.90;;;;;;5044452;28;20568;-85
2022/09/13 13:05:21;;;;;;;4.67;4.37;;;29.80;99.90;;;;;;5026010;28;20603;-85
2022/09/13 13:07:55;;;;;;;4.30;4.10;;;29.60;99.90;;;;;;5024880;28;20679;-86
2022/09/13 13:10:25;;;;;;;5.40;4.60;;;29.40;99.90;;;;;;5042944;28;20578;-86
2022/09/13 13:13:13;;;;;;;4.77;4.57;;;29.80;99.90;;;;;;5026801;28;20931;-86
2022/09/13 13:15:46;;;;;;;4.43;4.07;;;30.20;99.90;;;;;;5029847;28;20612;-89
2022/09/13 13:18:35;;;;;;;4.37;4.07;;;30.20;99.90;;;;;;5029261;28;20623;-85
2022/09/13 13:21:18;;;;;;;4.03;3.83;;;30.10;99.90;;;;;;5047313;28;20731;-85
2022/09/13 13:23:45;;;;;;;7.73;4.27;;;29.90;99.90;;;;;;5047239;28;20586;-85
2022/09/13 13:26:43;;;;;;;4.90;4.63;;;31.10;99.90;;;;;;5028847;28;21042;-85
2022/09/13 13:29:19;;;;;;;4.17;3.97;;;32.10;99.90;;;;;;5028757;28;20627;-85